createdAt,value
2022-07-26T00:01:18.463Z,5.17
2022-07-26T00:03:46.787Z,2.97
2022-07-26T00:06:14.909Z,2.43
2022-07-26T00:08:42.982Z,2.53
2022-07-26T00:11:12.593Z,3.33
2022-07-26T00:13:40.985Z,3.23
2022-07-26T00:16:09.146Z,3.20
2022-07-26T00:18:37.303Z,3.20
2022-07-26T00:21:06.386Z,2.47
2022-07-26T00:23:35.190Z,2.93
2022-07-26T00:26:03.325Z,2.70
2022-07-26T00:28:35.494Z,2.93
2022-07-26T00:31:05.071Z,2.70
2022-07-26T00:33:33.203Z,2.87
2022-07-26T00:36:01.663Z,2.60
2022-07-26T00:38:29.723Z,2.60
2022-07-26T00:40:57.844Z,3.63
2022-07-26T00:43:25.886Z,3.30
2022-07-26T00:45:55.475Z,3.47
2022-07-26T00:48:23.704Z,2.57
2022-07-26T00:50:53.699Z,2.70
2022-07-26T00:53:22.070Z,2.77
2022-07-26T00:55:50.856Z,2.90
2022-07-26T00:58:19.988Z,2.67
2022-07-26T01:00:48.071Z,2.80
2022-07-26T01:03:17.506Z,3.90
2022-07-26T01:05:45.565Z,2.93
2022-07-26T01:08:13.661Z,2.90
2022-07-26T01:10:43.744Z,4.07
2022-07-26T01:13:12.174Z,3.27
2022-07-26T01:15:40.352Z,4.00
2022-07-26T01:18:08.423Z,3.90
2022-07-26T01:20:38.557Z,4.00
2022-07-26T01:23:08.875Z,5.07
2022-07-26T01:25:43.049Z,4.07
2022-07-26T01:28:11.938Z,3.63
2022-07-26T01:30:49.272Z,3.97
2022-07-26T01:33:17.521Z,2.80
2022-07-26T01:35:45.679Z,3.20
2022-07-26T01:38:15.168Z,3.03
2022-07-26T01:40:43.385Z,4.83
2022-07-26T01:43:11.463Z,4.43
2022-07-26T01:45:39.554Z,3.03
2022-07-26T01:48:08.544Z,3.70
2022-07-26T01:50:37.214Z,3.60
2022-07-26T01:53:06.292Z,3.47
2022-07-26T01:55:36.753Z,3.07
2022-07-26T01:58:05.425Z,3.60
2022-07-26T02:00:34.342Z,3.27
2022-07-26T02:03:02.827Z,3.57
2022-07-26T02:05:31.272Z,3.37
2022-07-26T02:07:59.348Z,4.63
2022-07-26T02:10:48.589Z,3.83
2022-07-26T02:13:18.217Z,3.57
2022-07-26T02:15:46.391Z,5.57
2022-07-26T02:18:14.423Z,3.53
2022-07-26T02:20:42.454Z,3.07
2022-07-26T02:23:10.500Z,3.27
2022-07-26T02:25:38.531Z,3.27
2022-07-26T02:28:06.872Z,3.20
2022-07-26T02:30:36.307Z,3.13
2022-07-26T02:33:05.173Z,4.53
2022-07-26T02:35:33.282Z,3.77
2022-07-26T02:38:03.786Z,3.73
2022-07-26T02:40:31.989Z,4.80
2022-07-26T02:43:00.146Z,2.80
2022-07-26T02:45:28.269Z,4.23
2022-07-26T02:47:57.821Z,4.03
2022-07-26T02:50:27.696Z,3.43
2022-07-26T02:52:56.486Z,3.80
2022-07-26T02:55:26.735Z,5.67
2022-07-26T02:57:55.127Z,3.33
2022-07-26T03:00:25.986Z,3.67
2022-07-26T03:02:54.717Z,3.67
2022-07-26T03:05:24.690Z,4.33
2022-07-26T03:07:52.671Z,4.33
2022-07-26T03:10:20.924Z,3.07
2022-07-26T03:12:48.993Z,4.10
2022-07-26T03:15:17.059Z,4.17
2022-07-26T03:17:45.023Z,5.40
2022-07-26T03:20:14.205Z,3.80
2022-07-26T03:22:44.034Z,4.70
2022-07-26T03:25:12.241Z,4.87
2022-07-26T03:27:40.289Z,6.17
2022-07-26T03:30:09.689Z,4.27
2022-07-26T03:32:37.797Z,5.23
2022-07-26T03:35:06.518Z,5.30
2022-07-26T03:37:46.205Z,4.03
2022-07-26T03:40:17.322Z,5.47
2022-07-26T03:42:46.091Z,5.70
2022-07-26T03:45:14.468Z,6.20
2022-07-26T03:47:42.970Z,3.93
2022-07-26T03:50:13.618Z,3.90
2022-07-26T03:52:42.066Z,3.63
2022-07-26T03:55:24.745Z,5.47
2022-07-26T03:57:54.187Z,4.07
2022-07-26T04:00:22.349Z,3.77
2022-07-26T04:02:50.468Z,4.73
2022-07-26T04:05:21.800Z,4.37
2022-07-26T04:07:53.268Z,4.77
2022-07-26T04:10:22.577Z,4.83
2022-07-26T04:12:50.881Z,6.57
2022-07-26T04:15:21.454Z,4.03
2022-07-26T04:17:49.777Z,4.93
2022-07-26T04:20:19.034Z,3.97
2022-07-26T04:22:47.093Z,7.30
2022-07-26T04:25:15.276Z,5.17
2022-07-26T04:27:43.449Z,5.07
2022-07-26T04:30:15.145Z,5.77
2022-07-26T04:32:45.838Z,5.70
2022-07-26T04:35:15.519Z,3.57
2022-07-26T04:37:44.519Z,4.63
2022-07-26T04:40:13.879Z,4.50
2022-07-26T04:42:42.201Z,5.70
2022-07-26T04:45:12.706Z,4.57
2022-07-26T04:47:44.410Z,5.03
2022-07-26T04:50:13.123Z,4.73
2022-07-26T04:52:43.474Z,3.10
2022-07-26T04:55:12.471Z,4.50
2022-07-26T04:57:41.062Z,3.67
2022-07-26T05:00:26.978Z,3.60
2022-07-26T05:02:58.044Z,5.53
2022-07-26T05:05:28.264Z,4.10
2022-07-26T05:07:57.961Z,3.03
2022-07-26T05:10:31.165Z,5.07
2022-07-26T05:12:59.290Z,3.40
2022-07-26T05:15:32.988Z,4.77
2022-07-26T05:18:07.200Z,3.23
2022-07-26T05:20:36.779Z,4.47
2022-07-26T05:23:05.261Z,3.63
2022-07-26T05:25:33.281Z,3.70
2022-07-26T05:28:01.310Z,4.60
2022-07-26T05:30:29.580Z,2.80
2022-07-26T05:32:57.703Z,3.00
2022-07-26T05:35:27.302Z,3.03
2022-07-26T05:37:55.423Z,3.77
2022-07-26T05:40:23.529Z,3.47
2022-07-26T05:42:51.632Z,4.67
2022-07-26T05:45:19.683Z,4.60
2022-07-26T05:47:50.803Z,4.17
2022-07-26T05:50:20.111Z,3.43
2022-07-26T05:52:49.641Z,4.63
2022-07-26T05:55:17.695Z,4.47
2022-07-26T05:57:47.566Z,3.37
2022-07-26T06:00:18.454Z,3.33
2022-07-26T06:02:46.546Z,4.97
2022-07-26T06:05:16.318Z,3.08
2022-07-26T06:07:44.402Z,4.22
2022-07-26T06:10:14.033Z,5.03
2022-07-26T06:12:42.353Z,5.13
2022-07-26T06:15:15.618Z,8.82
2022-07-26T06:17:44.150Z,4.70
2022-07-26T06:20:12.984Z,9.88
2022-07-26T06:22:41.002Z,5.30
2022-07-26T06:25:10.074Z,6.70
2022-07-26T06:27:39.632Z,5.80
2022-07-26T06:30:10.215Z,5.35
2022-07-26T06:32:38.248Z,3.22
2022-07-26T06:35:07.031Z,5.03
2022-07-26T06:37:37.945Z,5.32
2022-07-26T06:40:07.445Z,4.32
2022-07-26T06:42:35.486Z,5.70
2022-07-26T06:45:05.882Z,3.65
2022-07-26T06:47:35.270Z,3.53
2022-07-26T06:50:03.474Z,5.30
2022-07-26T06:52:32.779Z,4.97
2022-07-26T06:55:01.246Z,4.53
2022-07-26T06:57:29.325Z,5.50
2022-07-26T06:59:57.396Z,6.00
2022-07-26T07:02:26.804Z,5.82
2022-07-26T07:04:55.069Z,6.53
2022-07-26T07:07:23.167Z,7.35
2022-07-26T07:09:51.544Z,6.32
2022-07-26T07:12:19.853Z,5.20
2022-07-26T07:14:47.962Z,4.90
2022-07-26T07:17:20.539Z,5.68
2022-07-26T07:19:50.010Z,9.65
2022-07-26T07:22:18.209Z,7.55
2022-07-26T07:24:46.632Z,6.10
2022-07-26T07:27:18.073Z,5.90
2022-07-26T07:29:48.989Z,5.38
2022-07-26T07:32:19.690Z,7.97
2022-07-26T07:34:50.088Z,5.05
2022-07-26T07:37:20.240Z,8.57
2022-07-26T07:39:50.495Z,5.55
2022-07-26T07:42:19.061Z,6.43
2022-07-26T07:44:47.328Z,6.68
2022-07-26T07:47:15.663Z,9.32
2022-07-26T07:49:43.974Z,6.45
2022-07-26T07:52:15.786Z,8.18
2022-07-26T07:54:43.874Z,7.93
2022-07-26T07:57:13.666Z,6.38
2022-07-26T07:59:42.702Z,6.40
2022-07-26T08:02:12.714Z,7.13
2022-07-26T08:04:40.827Z,5.63
2022-07-26T08:07:09.238Z,8.65
2022-07-26T08:09:43.039Z,6.50
2022-07-26T08:12:12.270Z,8.38
2022-07-26T08:14:41.455Z,8.80
2022-07-26T08:17:09.857Z,7.82
2022-07-26T08:19:42.261Z,10.82
2022-07-26T08:22:10.981Z,6.65
2022-07-26T08:24:40.614Z,8.55
2022-07-26T08:27:10.646Z,9.85
2022-07-26T08:29:38.742Z,6.85
2022-07-26T08:32:07.674Z,7.50
2022-07-26T08:34:36.110Z,7.40
2022-07-26T08:37:19.454Z,7.65
2022-07-26T08:39:49.437Z,7.97
2022-07-26T08:42:22.737Z,8.15
2022-07-26T08:44:51.892Z,8.60
2022-07-26T08:47:35.649Z,7.90
2022-07-26T08:50:09.422Z,11.90
2022-07-26T08:52:40.835Z,8.57
2022-07-26T08:55:11.125Z,8.63
2022-07-26T08:57:39.171Z,11.15
2022-07-26T09:00:21.050Z,10.18
2022-07-26T09:02:49.831Z,9.52
2022-07-26T09:05:20.688Z,11.30
2022-07-26T09:07:48.748Z,10.65
2022-07-26T09:10:18.241Z,12.63
2022-07-26T09:12:46.443Z,11.05
2022-07-26T09:15:23.251Z,10.68
2022-07-26T09:17:53.243Z,11.55
2022-07-26T09:20:26.146Z,11.00
2022-07-26T09:23:02.620Z,10.95
2022-07-26T09:25:33.553Z,9.60
2022-07-26T09:28:02.474Z,10.63
2022-07-26T09:30:31.914Z,10.45
2022-07-26T09:33:03.278Z,10.75
2022-07-26T09:35:50.690Z,9.82
2022-07-26T09:38:20.387Z,10.52
2022-07-26T09:40:51.372Z,10.38
2022-07-26T09:43:23.979Z,10.88
2022-07-26T09:46:05.253Z,9.73
2022-07-26T09:48:59.493Z,10.35
2022-07-26T09:51:37.503Z,8.43
2022-07-26T09:54:05.867Z,10.32
2022-07-26T09:56:45.789Z,8.70
2022-07-26T09:59:15.578Z,9.10
2022-07-26T10:01:44.051Z,10.23
2022-07-26T10:04:12.463Z,9.50
2022-07-26T10:06:41.190Z,10.40
2022-07-26T10:09:09.627Z,10.30
2022-07-26T10:11:42.655Z,10.57
2022-07-26T10:14:40.561Z,11.07
2022-07-26T10:17:40.905Z,11.35
2022-07-26T10:20:17.418Z,12.88
2022-07-26T10:22:52.632Z,12.38
2022-07-26T10:25:46.335Z,12.77
2022-07-26T10:28:26.717Z,13.15
2022-07-26T10:31:29.324Z,13.30
2022-07-26T10:33:59.369Z,12.73
2022-07-26T10:36:34.684Z,10.90
2022-07-26T10:39:08.318Z,10.60
2022-07-26T10:41:40.197Z,8.68
2022-07-26T10:44:16.396Z,8.60
2022-07-26T10:47:05.061Z,7.53
2022-07-26T10:49:37.798Z,7.93
2022-07-26T10:52:10.084Z,9.02
2022-07-26T10:55:06.475Z,8.57
2022-07-26T10:57:35.972Z,8.73
2022-07-26T11:00:13.153Z,9.32
2022-07-26T11:02:43.858Z,8.70
2022-07-26T11:05:16.560Z,8.75
2022-07-26T11:07:59.595Z,8.40
2022-07-26T11:10:33.078Z,8.20
2022-07-26T11:13:19.619Z,8.60
2022-07-26T11:15:49.612Z,9.32
2022-07-26T11:18:23.375Z,9.07
2022-07-26T11:20:54.256Z,8.65
2022-07-26T11:23:27.799Z,8.43
2022-07-26T11:26:20.629Z,8.90
2022-07-26T11:28:55.321Z,8.38
2022-07-26T11:31:49.790Z,8.52
2022-07-26T11:34:22.104Z,9.18
2022-07-26T11:36:52.136Z,7.82
2022-07-26T11:39:23.510Z,7.97
2022-07-26T11:41:52.929Z,7.47
2022-07-26T11:44:22.361Z,7.68
2022-07-26T11:46:51.656Z,7.45
2022-07-26T11:49:31.012Z,7.55
2022-07-26T11:52:09.896Z,7.75
2022-07-26T11:54:46.071Z,7.00
2022-07-26T11:57:16.068Z,6.60
2022-07-26T11:59:46.542Z,6.93
2022-07-26T12:02:15.994Z,6.68
2022-07-26T12:04:45.797Z,6.80
2022-07-26T12:07:18.463Z,6.70
2022-07-26T12:09:50.292Z,5.80
2022-07-26T12:12:22.915Z,6.15
2022-07-26T12:14:58.983Z,5.95
2022-07-26T12:17:27.394Z,5.90
2022-07-26T12:20:15.296Z,5.85
2022-07-26T12:22:55.771Z,5.93
2022-07-26T12:25:27.440Z,5.40
2022-07-26T12:27:58.159Z,5.63
2022-07-26T12:30:30.340Z,4.97
2022-07-26T12:33:02.894Z,5.63
2022-07-26T12:35:35.597Z,5.53
2022-07-26T12:38:04.428Z,5.78
2022-07-26T12:40:42.260Z,5.38
2022-07-26T12:43:10.316Z,5.55
2022-07-26T12:45:39.076Z,5.63
2022-07-26T12:48:10.964Z,6.18
2022-07-26T12:50:43.182Z,7.70
2022-07-26T12:53:11.467Z,7.27
2022-07-26T12:55:40.946Z,7.33
2022-07-26T12:58:09.189Z,5.90
2022-07-26T13:00:37.302Z,4.60
2022-07-26T13:03:05.526Z,2.90
2022-07-26T13:05:36.145Z,2.57
2022-07-26T13:08:06.098Z,2.23
2022-07-26T13:10:35.660Z,2.20
2022-07-26T13:13:05.062Z,1.90
2022-07-26T13:15:35.261Z,2.17
2022-07-26T13:18:07.211Z,2.33
2022-07-26T13:20:35.818Z,2.43
2022-07-26T13:23:05.270Z,2.20
2022-07-26T13:25:39.988Z,2.20
2022-07-26T13:28:09.662Z,2.27
2022-07-26T13:30:39.373Z,2.17
2022-07-26T13:33:08.148Z,2.17
2022-07-26T13:35:38.801Z,3.30
2022-07-26T13:38:08.203Z,2.47
2022-07-26T13:40:36.340Z,3.17
2022-07-26T13:43:05.521Z,3.50
2022-07-26T13:45:33.599Z,3.73
2022-07-26T13:48:01.716Z,4.20
2022-07-26T13:50:29.820Z,4.27
2022-07-26T13:52:57.975Z,6.40
2022-07-26T13:55:27.510Z,5.33
2022-07-26T13:57:58.581Z,3.73
2022-07-26T14:00:27.805Z,4.13
2022-07-26T14:02:57.913Z,3.23
2022-07-26T14:05:26.743Z,3.50
2022-07-26T14:07:55.462Z,3.73
2022-07-26T14:10:24.732Z,3.47
2022-07-26T14:12:54.663Z,3.43
2022-07-26T14:15:23.696Z,3.63
2022-07-26T14:17:52.261Z,4.17
2022-07-26T14:20:21.195Z,3.53
2022-07-26T14:22:53.170Z,3.60
2022-07-26T14:25:21.756Z,3.40
2022-07-26T14:27:50.182Z,5.20
2022-07-26T14:30:19.787Z,3.97
2022-07-26T14:32:48.186Z,3.83
2022-07-26T14:35:17.532Z,3.33
2022-07-26T14:37:46.255Z,4.03
2022-07-26T14:40:15.784Z,3.73
2022-07-26T14:42:44.325Z,3.80
2022-07-26T14:45:13.416Z,4.00
2022-07-26T14:47:42.840Z,4.10
2022-07-26T14:50:12.268Z,4.40
2022-07-26T14:52:41.474Z,3.80
2022-07-26T14:55:10.229Z,4.67
2022-07-26T14:57:40.039Z,5.23
2022-07-26T15:00:10.487Z,3.83
2022-07-26T15:02:40.493Z,4.33
2022-07-26T15:05:11.283Z,4.23
2022-07-26T15:07:39.611Z,4.27
2022-07-26T15:10:09.320Z,4.40
2022-07-26T15:12:37.472Z,4.57
2022-07-26T15:15:06.821Z,3.97
2022-07-26T15:17:34.899Z,4.13
2022-07-26T15:20:03.418Z,4.77
2022-07-26T15:22:32.973Z,4.93
2022-07-26T15:25:01.049Z,4.17
2022-07-26T15:27:29.084Z,3.97
2022-07-26T15:30:02.906Z,4.47
2022-07-26T15:32:32.977Z,4.60
2022-07-26T15:35:01.104Z,4.50
2022-07-26T15:37:29.267Z,4.80
2022-07-26T15:39:58.722Z,4.90
2022-07-26T15:42:26.926Z,5.40
2022-07-26T15:44:56.090Z,5.37
2022-07-26T15:47:52.211Z,5.13
2022-07-26T15:50:15.122Z,5.77
2022-07-26T15:52:45.914Z,6.03
2022-07-26T15:55:19.955Z,6.33
2022-07-26T15:57:48.669Z,5.40
2022-07-26T16:00:17.729Z,6.50
2022-07-26T16:02:46.158Z,7.60
2022-07-26T16:05:14.637Z,6.30
2022-07-26T16:07:43.108Z,6.37
2022-07-26T16:10:12.727Z,6.30
2022-07-26T16:12:43.083Z,5.63
2022-07-26T16:15:12.352Z,6.37
2022-07-26T16:17:40.755Z,6.13
2022-07-26T16:20:09.530Z,6.57
2022-07-26T16:22:40.864Z,5.97
2022-07-26T16:25:12.735Z,6.07
2022-07-26T16:27:42.569Z,8.00
2022-07-26T16:30:12.002Z,5.97
2022-07-26T16:32:40.130Z,5.93
2022-07-26T16:35:09.348Z,6.10
2022-07-26T16:37:37.409Z,6.70
2022-07-26T16:40:08.625Z,5.97
2022-07-26T16:42:36.969Z,6.23
2022-07-26T16:45:08.721Z,5.57
2022-07-26T16:47:36.752Z,5.67
2022-07-26T16:50:05.605Z,5.77
2022-07-26T16:52:33.753Z,6.27
2022-07-26T16:55:03.995Z,6.07
2022-07-26T16:57:32.277Z,5.67
2022-07-26T17:00:00.303Z,5.93
2022-07-26T17:02:29.756Z,5.60
2022-07-26T17:04:58.736Z,8.37
2022-07-26T17:07:27.116Z,7.03
2022-07-26T17:09:55.695Z,6.03
2022-07-26T17:12:24.369Z,6.27
2022-07-26T17:14:54.880Z,6.00
2022-07-26T17:17:22.992Z,6.17
2022-07-26T17:19:52.603Z,6.20
2022-07-26T17:22:21.207Z,7.03
2022-07-26T17:24:49.775Z,6.00
2022-07-26T17:27:18.021Z,6.00
2022-07-26T17:29:46.062Z,7.13
2022-07-26T17:32:14.102Z,6.27
2022-07-26T17:34:42.159Z,6.40
2022-07-26T17:37:11.697Z,5.40
2022-07-26T17:39:51.487Z,5.57
2022-07-26T17:42:20.131Z,7.30
2022-07-26T17:44:48.173Z,5.13
2022-07-26T17:47:27.703Z,5.73
2022-07-26T17:49:57.183Z,6.43
2022-07-26T17:52:28.383Z,6.63
2022-07-26T17:54:58.813Z,7.50
2022-07-26T17:57:27.015Z,5.37
2022-07-26T17:59:55.459Z,7.27
2022-07-26T18:02:23.619Z,5.87
2022-07-26T18:04:51.702Z,6.07
2022-07-26T18:07:20.298Z,6.57
2022-07-26T18:09:49.879Z,6.20
2022-07-26T18:12:17.940Z,6.90
2022-07-26T18:14:45.958Z,6.10
2022-07-26T18:17:14.056Z,6.40
2022-07-26T18:19:42.065Z,6.57
2022-07-26T18:22:10.080Z,6.20
2022-07-26T18:24:38.098Z,8.17
2022-07-26T18:27:07.707Z,7.40
2022-07-26T18:29:38.144Z,7.33
2022-07-26T18:32:06.749Z,7.43
2022-07-26T18:34:35.270Z,7.50
2022-07-26T18:37:03.360Z,9.03
2022-07-26T18:39:33.111Z,7.90
2022-07-26T18:42:01.412Z,7.87
2022-07-26T18:44:30.906Z,8.93
2022-07-26T18:46:58.997Z,10.43
2022-07-26T18:49:30.995Z,8.23
2022-07-26T18:52:04.269Z,8.37
2022-07-26T18:54:36.703Z,9.87
2022-07-26T18:57:04.923Z,10.70
2022-07-26T18:59:34.864Z,8.63
2022-07-26T19:02:03.152Z,9.73
2022-07-26T19:04:31.418Z,9.67
2022-07-26T19:06:59.806Z,9.63
2022-07-26T19:09:27.823Z,7.57
2022-07-26T19:11:55.890Z,10.53
2022-07-26T19:14:24.003Z,8.73
2022-07-26T19:16:53.443Z,10.03
2022-07-26T19:19:21.501Z,7.73
2022-07-26T19:21:49.542Z,10.23
2022-07-26T19:24:17.568Z,7.67
2022-07-26T19:26:48.834Z,7.93
2022-07-26T19:29:18.352Z,8.33
2022-07-26T19:31:46.901Z,7.30
2022-07-26T19:34:16.705Z,7.10
2022-07-26T19:36:44.932Z,7.50
2022-07-26T19:39:13.591Z,7.87
2022-07-26T19:41:41.813Z,6.73
2022-07-26T19:44:12.922Z,6.60
2022-07-26T19:46:41.181Z,5.80
2022-07-26T19:49:11.011Z,7.17
2022-07-26T19:51:41.110Z,8.97
2022-07-26T19:54:09.477Z,7.03
2022-07-26T19:56:37.554Z,9.27
2022-07-26T19:59:05.667Z,6.87
2022-07-26T20:01:33.774Z,6.43
2022-07-26T20:04:02.968Z,9.97
2022-07-26T20:06:31.025Z,7.90
2022-07-26T20:09:00.442Z,8.50
2022-07-26T20:11:28.900Z,7.70
2022-07-26T20:13:56.981Z,7.97
2022-07-26T20:16:28.191Z,9.63
2022-07-26T20:18:56.303Z,7.40
2022-07-26T20:21:24.323Z,9.80
2022-07-26T20:23:52.352Z,8.40
2022-07-26T20:26:22.892Z,8.27
2022-07-26T20:28:51.030Z,7.97
2022-07-26T20:31:19.190Z,10.77
2022-07-26T20:33:47.294Z,7.27
2022-07-26T20:36:15.366Z,7.37
2022-07-26T20:38:45.076Z,8.23
2022-07-26T20:41:16.338Z,8.50
2022-07-26T20:43:49.714Z,8.13
2022-07-26T20:46:17.867Z,7.73
2022-07-26T20:48:46.321Z,8.33
2022-07-26T20:51:14.432Z,8.90
2022-07-26T20:53:42.766Z,9.17
2022-07-26T20:56:11.333Z,7.57
2022-07-26T20:58:39.514Z,8.87
2022-07-26T21:01:11.489Z,7.80
2022-07-26T21:03:39.612Z,7.50
2022-07-26T21:06:08.376Z,9.17
2022-07-26T21:08:36.571Z,8.30
2022-07-26T21:11:04.840Z,9.27
2022-07-26T21:13:34.155Z,8.13
2022-07-26T21:16:02.243Z,7.60
2022-07-26T21:18:33.695Z,8.83
2022-07-26T21:21:02.530Z,7.37
2022-07-26T21:23:30.574Z,8.43
2022-07-26T21:26:00.577Z,10.57
2022-07-26T21:28:28.727Z,7.80
2022-07-26T21:30:56.984Z,7.83
2022-07-26T21:33:25.078Z,8.40
2022-07-26T21:35:56.426Z,8.07
2022-07-26T21:38:24.476Z,8.30
2022-07-26T21:40:52.514Z,7.77
2022-07-26T21:43:20.817Z,9.20
2022-07-26T21:45:48.905Z,10.47
2022-07-26T21:48:17.816Z,10.37
2022-07-26T21:50:45.936Z,7.93
2022-07-26T21:53:15.394Z,9.10
2022-07-26T21:55:43.465Z,8.30
2022-07-26T21:58:16.846Z,10.63
2022-07-26T22:00:44.990Z,10.00
2022-07-26T22:03:17.391Z,10.67
2022-07-26T22:05:46.839Z,9.67
2022-07-26T22:08:19.220Z,10.47
2022-07-26T22:10:47.301Z,8.87
2022-07-26T22:13:16.046Z,8.43
2022-07-26T22:15:44.722Z,8.90
2022-07-26T22:18:15.522Z,12.23
2022-07-26T22:20:47.379Z,9.60
2022-07-26T22:23:15.770Z,11.00
2022-07-26T22:25:45.229Z,10.53
2022-07-26T22:28:17.966Z,10.03
2022-07-26T22:30:49.070Z,9.20
2022-07-26T22:33:17.261Z,10.13
2022-07-26T22:35:47.349Z,9.53
2022-07-26T22:38:15.798Z,11.40
2022-07-26T22:40:45.817Z,10.20
2022-07-26T22:43:14.822Z,11.63
2022-07-26T22:45:43.013Z,9.67
2022-07-26T22:48:11.318Z,9.17
2022-07-26T22:50:39.446Z,10.63
2022-07-26T22:53:07.493Z,8.93
2022-07-26T22:55:35.528Z,8.23
2022-07-26T22:58:05.183Z,9.63
2022-07-26T23:00:33.281Z,9.33
2022-07-26T23:03:01.371Z,7.90
2022-07-26T23:05:45.803Z,7.20
2022-07-26T23:08:45.050Z,9.43
2022-07-26T23:11:03.229Z,7.53
2022-07-26T23:13:33.674Z,8.50
2022-07-26T23:16:02.184Z,9.17
2022-07-26T23:18:30.770Z,6.77
2022-07-26T23:20:59.295Z,7.73
2022-07-26T23:23:30.083Z,7.40
2022-07-26T23:25:59.554Z,6.80
2022-07-26T23:28:37.473Z,6.53
2022-07-26T23:31:11.990Z,7.87
2022-07-26T23:33:52.408Z,6.83
2022-07-26T23:36:23.408Z,6.70
2022-07-26T23:38:51.492Z,7.33
2022-07-26T23:41:20.039Z,7.43
2022-07-26T23:43:48.321Z,6.67
2022-07-26T23:46:18.248Z,8.10
2022-07-26T23:48:46.371Z,6.03
2022-07-26T23:51:15.243Z,7.33
2022-07-26T23:53:43.504Z,7.90
2022-07-26T23:56:11.536Z,7.00
2022-07-26T23:58:39.761Z,6.43
